createdAt,value
2023-02-05T00:01:50.933Z,11.82
2023-02-05T00:04:18.882Z,13.07
2023-02-05T00:06:46.223Z,15.23
2023-02-05T00:09:13.571Z,23.63
2023-02-05T00:11:42.299Z,13.77
2023-02-05T00:14:10.900Z,10.43
2023-02-05T00:16:38.013Z,11.68
2023-02-05T00:19:05.311Z,9.75
2023-02-05T00:21:32.317Z,14.38
2023-02-05T00:23:59.866Z,17.92
2023-02-05T00:26:26.877Z,16.27
2023-02-05T00:28:54.425Z,12.27
2023-02-05T00:31:22.766Z,14.27
2023-02-05T00:33:51.578Z,10.57
2023-02-05T00:36:20.988Z,12.10
2023-02-05T00:38:48.647Z,12.57
2023-02-05T00:41:16.087Z,14.13
2023-02-05T00:43:43.860Z,15.38
2023-02-05T00:46:12.228Z,10.05
2023-02-05T00:48:41.056Z,13.95
2023-02-05T00:51:08.159Z,18.90
2023-02-05T00:53:35.394Z,10.48
2023-02-05T00:56:02.551Z,8.43
2023-02-05T00:58:30.064Z,11.50
2023-02-05T01:00:57.762Z,12.05
2023-02-05T01:03:25.033Z,13.40
2023-02-05T01:05:52.039Z,13.98
2023-02-05T01:08:19.602Z,10.75
2023-02-05T01:10:48.786Z,14.45
2023-02-05T01:13:18.062Z,13.65
2023-02-05T01:15:46.231Z,15.02
2023-02-05T01:18:13.781Z,15.13
2023-02-05T01:20:42.369Z,14.25
2023-02-05T01:23:10.695Z,14.23
2023-02-05T01:25:38.027Z,11.32
2023-02-05T01:28:06.760Z,16.83
2023-02-05T01:30:34.609Z,8.75
2023-02-05T01:33:02.623Z,11.38
2023-02-05T01:35:29.858Z,8.98
2023-02-05T01:37:57.101Z,12.43
2023-02-05T01:40:24.643Z,15.60
2023-02-05T01:42:51.889Z,20.52
2023-02-05T01:45:25.200Z,11.63
2023-02-05T01:47:53.681Z,12.10
2023-02-05T01:50:39.737Z,14.88
2023-02-05T01:53:11.245Z,12.93
2023-02-05T01:55:43.925Z,16.33
2023-02-05T02:00:38.431Z,24.20
2023-02-05T02:03:06.177Z,24.48
2023-02-05T02:05:33.347Z,32.55
2023-02-05T02:08:00.698Z,18.48
2023-02-05T02:10:27.852Z,19.80
2023-02-05T02:12:55.910Z,16.00
2023-02-05T02:15:25.643Z,18.70
2023-02-05T02:18:17.251Z,20.88
2023-02-05T02:20:44.607Z,13.18
2023-02-05T02:23:21.222Z,14.98
2023-02-05T02:26:16.660Z,11.48
2023-02-05T02:29:04.092Z,11.93
2023-02-05T02:31:41.863Z,11.30
2023-02-05T02:34:17.694Z,17.13
2023-02-05T02:36:53.865Z,18.63
2023-02-05T02:39:27.008Z,13.00
2023-02-05T02:42:08.551Z,19.80
2023-02-05T02:45:02.986Z,12.88
2023-02-05T02:47:36.540Z,9.95
2023-02-05T02:50:24.265Z,13.55
2023-02-05T02:52:54.202Z,15.18
2023-02-05T02:55:23.626Z,15.90
2023-02-05T02:57:52.695Z,13.05
2023-02-05T03:00:25.217Z,10.95
2023-02-05T03:03:01.061Z,10.43
2023-02-05T03:05:29.789Z,13.55
2023-02-05T03:08:01.437Z,16.08
2023-02-05T03:10:55.334Z,11.55
2023-02-05T03:13:22.447Z,16.05
2023-02-05T03:15:49.857Z,15.75
2023-02-05T03:18:18.489Z,18.10
2023-02-05T03:20:53.295Z,18.60
2023-02-05T03:23:20.527Z,14.48
2023-02-05T03:25:48.465Z,12.10
2023-02-05T03:28:16.044Z,12.95
2023-02-05T03:31:00.323Z,19.15
2023-02-05T03:33:53.774Z,15.90
2023-02-05T03:36:35.071Z,10.23
2023-02-05T03:39:13.800Z,14.20
2023-02-05T03:41:56.527Z,16.10
2023-02-05T03:44:55.309Z,13.60
2023-02-05T03:48:17.789Z,12.82
2023-02-05T03:51:03.721Z,14.10
2023-02-05T03:53:41.800Z,14.25
2023-02-05T03:56:31.541Z,12.43
2023-02-05T03:58:59.729Z,16.23
2023-02-05T04:01:26.980Z,18.08
2023-02-05T04:03:54.248Z,13.27
2023-02-05T04:06:21.342Z,23.33
2023-02-05T04:08:48.909Z,12.35
2023-02-05T04:11:16.020Z,13.60
2023-02-05T04:13:43.473Z,12.07
2023-02-05T04:16:10.486Z,21.00
2023-02-05T04:18:38.066Z,14.77
2023-02-05T04:21:05.475Z,11.05
2023-02-05T04:23:32.796Z,15.30
2023-02-05T04:25:59.727Z,14.70
2023-02-05T04:28:27.219Z,17.25
2023-02-05T04:30:54.406Z,22.55
2023-02-05T04:33:21.778Z,15.73
2023-02-05T04:35:48.704Z,20.40
2023-02-05T04:38:15.930Z,15.80
2023-02-05T04:40:42.849Z,16.50
2023-02-05T04:43:10.076Z,19.50
2023-02-05T04:45:37.100Z,19.08
2023-02-05T04:48:06.554Z,15.85
2023-02-05T04:50:33.617Z,13.90
2023-02-05T04:53:04.162Z,11.20
2023-02-05T04:55:32.480Z,16.42
2023-02-05T04:57:59.995Z,18.17
2023-02-05T05:00:27.364Z,15.15
2023-02-05T05:02:54.821Z,10.98
2023-02-05T05:05:21.810Z,14.93
2023-02-05T05:07:49.300Z,15.50
2023-02-05T05:10:16.321Z,16.73
2023-02-05T05:12:43.527Z,12.07
2023-02-05T05:15:12.831Z,16.52
2023-02-05T05:17:40.156Z,13.18
2023-02-05T05:20:07.380Z,12.80
2023-02-05T05:22:34.563Z,13.50
2023-02-05T05:25:01.691Z,11.35
2023-02-05T05:27:29.019Z,11.38
2023-02-05T05:29:55.984Z,16.40
2023-02-05T05:32:23.259Z,12.07
2023-02-05T05:34:50.327Z,16.08
2023-02-05T05:37:17.564Z,13.75
2023-02-05T05:40:03.064Z,20.10
2023-02-05T05:42:48.956Z,24.40
2023-02-05T05:45:15.949Z,12.05
2023-02-05T05:47:43.193Z,27.77
2023-02-05T05:50:10.220Z,22.30
2023-02-05T05:52:37.475Z,16.35
2023-02-05T05:55:04.948Z,16.55
2023-02-05T05:57:32.690Z,23.92
2023-02-05T05:59:59.706Z,19.33
2023-02-05T06:02:26.943Z,12.27
2023-02-05T06:04:54.123Z,13.43
2023-02-05T06:07:21.367Z,12.73
2023-02-05T06:09:48.293Z,11.20
2023-02-05T06:12:15.583Z,14.20
2023-02-05T06:14:42.572Z,11.43
2023-02-05T06:17:09.919Z,12.57
2023-02-05T06:19:36.858Z,16.92
2023-02-05T06:22:04.488Z,12.02
2023-02-05T06:24:31.464Z,18.48
2023-02-05T06:26:58.993Z,16.38
2023-02-05T06:29:26.012Z,21.48
2023-02-05T06:31:53.479Z,20.70
2023-02-05T06:34:20.577Z,16.48
2023-02-05T06:36:48.095Z,13.45
2023-02-05T06:39:15.059Z,13.55
2023-02-05T06:41:42.357Z,13.52
2023-02-05T06:44:10.090Z,11.20
2023-02-05T06:46:37.397Z,12.43
2023-02-05T06:49:05.620Z,15.38
2023-02-05T06:51:32.872Z,11.68
2023-02-05T06:54:02.958Z,13.75
2023-02-05T06:56:30.617Z,20.83
2023-02-05T06:58:57.606Z,16.77
2023-02-05T07:01:24.964Z,14.00
2023-02-05T07:03:56.029Z,17.10
2023-02-05T07:06:24.034Z,15.25
2023-02-05T07:08:53.526Z,15.57
2023-02-05T07:11:21.793Z,8.02
2023-02-05T07:13:48.847Z,14.02
2023-02-05T07:16:16.137Z,12.98
2023-02-05T07:18:43.347Z,11.57
2023-02-05T07:21:15.935Z,11.70
2023-02-05T07:23:43.298Z,12.57
2023-02-05T07:26:13.651Z,16.05
2023-02-05T07:28:41.604Z,11.20
2023-02-05T07:31:11.417Z,11.30
2023-02-05T07:33:38.616Z,10.25
2023-02-05T07:36:08.492Z,19.70
2023-02-05T07:38:36.672Z,12.48
2023-02-05T07:41:08.409Z,14.85
2023-02-05T07:43:35.605Z,15.05
2023-02-05T07:46:05.792Z,13.38
2023-02-05T07:48:33.244Z,20.13
2023-02-05T07:51:01.240Z,15.70
2023-02-05T07:53:28.247Z,11.98
2023-02-05T07:55:55.941Z,12.73
2023-02-05T07:58:22.986Z,10.43
2023-02-05T08:00:50.260Z,8.50
2023-02-05T08:03:17.367Z,12.48
2023-02-05T08:05:44.916Z,18.42
2023-02-05T08:08:13.154Z,9.13
2023-02-05T08:10:40.500Z,6.43
2023-02-05T08:13:07.668Z,5.43
2023-02-05T08:15:35.177Z,6.63
2023-02-05T08:18:02.458Z,11.35
2023-02-05T08:20:29.873Z,31.73
2023-02-05T08:22:56.866Z,31.25
2023-02-05T08:25:24.480Z,26.38
2023-02-05T08:27:51.404Z,18.83
2023-02-05T08:30:21.679Z,23.13
2023-02-05T08:32:50.066Z,14.73
2023-02-05T08:35:18.055Z,18.33
2023-02-05T08:37:45.204Z,15.52
2023-02-05T08:40:13.044Z,23.05
2023-02-05T08:42:40.433Z,18.38
2023-02-05T08:45:09.055Z,19.05
2023-02-05T08:47:36.570Z,23.48
2023-02-05T08:50:07.389Z,26.67
2023-02-05T08:52:34.671Z,21.63
2023-02-05T08:55:01.942Z,24.55
2023-02-05T08:57:30.460Z,19.92
2023-02-05T08:59:58.315Z,18.38
2023-02-05T09:02:28.443Z,21.00
2023-02-05T09:05:08.004Z,16.95
2023-02-05T09:07:36.275Z,18.00
2023-02-05T09:10:03.898Z,24.27
2023-02-05T09:12:30.853Z,22.13
2023-02-05T09:14:58.273Z,24.65
2023-02-05T09:17:25.359Z,21.80
2023-02-05T09:19:52.591Z,18.52
2023-02-05T09:22:20.901Z,13.95
2023-02-05T09:24:48.680Z,20.75
2023-02-05T09:27:15.678Z,13.65
2023-02-05T09:29:45.154Z,10.13
2023-02-05T09:32:12.106Z,21.88
2023-02-05T09:34:39.416Z,20.67
2023-02-05T09:37:06.419Z,16.63
2023-02-05T09:42:23.869Z,18.40
2023-02-05T09:45:10.202Z,14.90
2023-02-05T09:47:55.626Z,17.65
2023-02-05T09:50:29.751Z,18.30
2023-02-05T09:53:02.901Z,14.70
2023-02-05T09:55:34.116Z,18.33
2023-02-05T09:58:07.177Z,27.50
2023-02-05T10:00:44.882Z,12.98
2023-02-05T10:03:42.546Z,13.27
2023-02-05T10:06:28.817Z,10.35
2023-02-05T10:09:39.610Z,12.15
2023-02-05T10:12:24.939Z,20.95
2023-02-05T10:15:13.768Z,11.93
2023-02-05T10:18:14.269Z,12.57
2023-02-05T10:20:50.440Z,7.78
2023-02-05T10:23:32.108Z,9.77
2023-02-05T10:26:01.835Z,8.93
2023-02-05T10:28:44.199Z,8.13
2023-02-05T10:31:23.938Z,5.07
2023-02-05T10:33:56.124Z,4.53
2023-02-05T10:36:27.502Z,5.43
2023-02-05T10:38:57.130Z,4.85
2023-02-05T10:41:39.514Z,4.25
2023-02-05T10:44:16.937Z,8.80
2023-02-05T10:46:51.647Z,8.38
2023-02-05T10:49:48.289Z,8.80
2023-02-05T10:52:16.870Z,5.18
2023-02-05T10:54:45.419Z,9.23
2023-02-05T10:57:15.015Z,6.05
2023-02-05T10:59:51.320Z,8.05
2023-02-05T11:02:18.330Z,6.75
2023-02-05T11:04:52.690Z,8.35
2023-02-05T11:07:25.426Z,7.53
2023-02-05T11:12:32.780Z,6.75
2023-02-05T11:15:02.847Z,7.95
2023-02-05T11:17:38.112Z,5.13
2023-02-05T11:20:17.503Z,7.47
2023-02-05T11:22:46.252Z,7.18
2023-02-05T11:25:29.803Z,10.15
2023-02-05T11:27:59.129Z,10.63
2023-02-05T11:30:52.650Z,9.75
2023-02-05T11:36:05.966Z,9.27
2023-02-05T11:38:50.473Z,5.35
2023-02-05T11:41:51.998Z,7.57
2023-02-05T11:44:30.438Z,13.05
2023-02-05T11:47:00.648Z,5.03
2023-02-05T11:49:40.283Z,6.35
2023-02-05T11:52:15.312Z,8.73
2023-02-05T11:54:47.593Z,8.80
2023-02-05T11:57:17.825Z,12.70
2023-02-05T12:00:01.712Z,9.25
2023-02-05T12:02:35.624Z,10.43
2023-02-05T12:05:17.420Z,8.25
2023-02-05T12:08:12.842Z,6.82
2023-02-05T12:11:01.099Z,5.70
2023-02-05T12:13:52.969Z,6.18
2023-02-05T12:16:51.648Z,7.22
2023-02-05T12:19:24.312Z,6.63
2023-02-05T12:21:51.460Z,7.73
2023-02-05T12:24:30.886Z,9.00
2023-02-05T12:27:22.567Z,9.65
2023-02-05T12:30:17.955Z,5.68
2023-02-05T12:33:12.570Z,7.53
2023-02-05T12:36:10.991Z,6.38
2023-02-05T12:38:52.699Z,9.30
2023-02-05T12:41:36.606Z,5.63
2023-02-05T12:44:18.060Z,7.43
2023-02-05T12:46:53.860Z,8.43
2023-02-05T12:49:27.547Z,6.82
2023-02-05T12:52:13.629Z,4.75
2023-02-05T12:54:51.147Z,9.98
2023-02-05T12:57:26.137Z,8.80
2023-02-05T13:00:03.349Z,8.38
2023-02-05T13:02:52.554Z,8.88
2023-02-05T13:05:22.210Z,7.80
2023-02-05T13:08:28.112Z,9.13
2023-02-05T13:11:25.366Z,9.55
2023-02-05T13:14:13.774Z,6.75
2023-02-05T13:16:47.611Z,9.02
2023-02-05T13:19:25.332Z,7.93
2023-02-05T13:22:14.456Z,10.60
2023-02-05T13:25:10.622Z,11.38
2023-02-05T13:28:07.899Z,11.40
2023-02-05T13:30:40.383Z,5.95
2023-02-05T13:33:08.256Z,10.93
2023-02-05T13:35:57.591Z,8.82
2023-02-05T13:38:53.724Z,12.32
2023-02-05T13:41:32.973Z,14.00
2023-02-05T13:44:10.508Z,13.93
2023-02-05T13:46:59.111Z,15.88
2023-02-05T13:49:37.980Z,12.57
2023-02-05T13:52:29.939Z,14.77
2023-02-05T13:55:11.940Z,13.05
2023-02-05T13:57:59.099Z,12.30
2023-02-05T14:00:27.815Z,14.02
2023-02-05T14:02:57.712Z,19.90
2023-02-05T14:05:37.458Z,22.77
2023-02-05T14:08:06.385Z,23.00
2023-02-05T14:10:41.077Z,23.40
2023-02-05T14:13:34.228Z,22.00
2023-02-05T14:16:26.143Z,25.38
2023-02-05T14:19:02.223Z,21.13
2023-02-05T14:21:35.003Z,15.63
2023-02-05T14:24:23.533Z,13.48
2023-02-05T14:26:59.642Z,12.65
2023-02-05T14:29:47.134Z,17.70
2023-02-05T14:32:26.426Z,16.05
2023-02-05T14:35:05.305Z,11.18
2023-02-05T14:37:41.172Z,11.65
2023-02-05T14:40:35.863Z,10.63
2023-02-05T14:43:27.583Z,8.00
2023-02-05T14:45:55.182Z,9.55
2023-02-05T14:48:30.757Z,12.98
2023-02-05T14:51:18.933Z,14.80
2023-02-05T14:54:05.767Z,16.08
2023-02-05T14:56:39.710Z,22.20
2023-02-05T14:59:38.058Z,17.75
2023-02-05T15:02:44.060Z,21.73
2023-02-05T15:05:18.698Z,23.10
2023-02-05T15:07:48.548Z,25.90
2023-02-05T15:10:21.642Z,33.88
2023-02-05T15:13:10.169Z,55.35
2023-02-05T15:15:38.030Z,55.40
2023-02-05T15:18:06.660Z,39.67
2023-02-05T15:20:38.046Z,33.50
2023-02-05T15:23:17.969Z,30.92
2023-02-05T15:25:54.328Z,21.85
2023-02-05T15:28:52.188Z,20.35
2023-02-05T15:31:47.197Z,22.75
2023-02-05T15:34:31.482Z,18.00
2023-02-05T15:37:01.845Z,24.55
2023-02-05T15:39:51.122Z,23.17
2023-02-05T15:42:33.077Z,19.33
2023-02-05T15:45:26.732Z,29.40
2023-02-05T15:50:50.064Z,24.33
2023-02-05T15:53:35.175Z,23.48
2023-02-05T15:56:16.730Z,28.13
2023-02-05T15:58:52.637Z,23.58
2023-02-05T16:01:50.045Z,37.28
2023-02-05T16:04:34.740Z,31.25
2023-02-05T16:07:02.747Z,34.80
2023-02-05T16:09:31.324Z,47.38
2023-02-05T16:12:12.082Z,74.40
2023-02-05T16:14:39.095Z,67.43
2023-02-05T16:17:21.507Z,72.15
2023-02-05T16:20:04.787Z,78.63
2023-02-05T16:22:48.370Z,52.28
2023-02-05T16:25:30.180Z,47.80
2023-02-05T16:27:59.382Z,47.33
2023-02-05T16:30:42.772Z,38.92
2023-02-05T16:33:30.708Z,45.38
2023-02-05T16:36:00.042Z,60.13
2023-02-05T16:38:28.369Z,83.88
2023-02-05T16:40:58.659Z,60.20
2023-02-05T16:43:36.797Z,54.97
2023-02-05T16:46:06.615Z,41.50
2023-02-05T16:48:46.971Z,35.13
2023-02-05T16:51:32.673Z,26.42
2023-02-05T16:54:01.326Z,24.05
2023-02-05T16:56:32.466Z,25.88
2023-02-05T16:59:03.024Z,28.40
2023-02-05T17:01:40.252Z,31.60
2023-02-05T17:04:08.011Z,28.40
2023-02-05T17:06:37.520Z,29.80
2023-02-05T17:09:05.833Z,67.28
2023-02-05T17:11:42.984Z,65.97
2023-02-05T17:14:31.453Z,34.75
2023-02-05T17:17:02.322Z,39.95
2023-02-05T17:19:33.997Z,49.17
2023-02-05T17:22:16.253Z,44.00
2023-02-05T17:24:46.480Z,41.55
2023-02-05T17:27:23.053Z,41.25
2023-02-05T17:29:50.951Z,48.17
2023-02-05T17:32:19.830Z,54.83
2023-02-05T17:34:47.963Z,49.25
2023-02-05T17:37:15.742Z,34.92
2023-02-05T17:39:43.224Z,53.60
2023-02-05T17:42:25.562Z,59.17
2023-02-05T17:44:53.811Z,43.70
2023-02-05T17:47:20.780Z,38.33
2023-02-05T17:49:48.448Z,51.60
2023-02-05T17:52:15.825Z,52.42
2023-02-05T17:54:44.441Z,66.15
2023-02-05T17:57:17.935Z,64.13
2023-02-05T17:59:45.790Z,48.17
2023-02-05T18:02:13.839Z,55.42
2023-02-05T18:04:41.867Z,63.42
2023-02-05T18:07:32.955Z,42.38
2023-02-05T18:10:00.383Z,31.77
2023-02-05T18:12:27.839Z,30.25
2023-02-05T18:14:55.372Z,29.08
2023-02-05T18:17:22.346Z,38.20
2023-02-05T18:19:49.885Z,47.85
2023-02-05T18:22:16.927Z,56.10
2023-02-05T18:24:44.294Z,43.75
2023-02-05T18:27:14.223Z,28.15
2023-02-05T18:29:43.606Z,44.30
2023-02-05T18:32:10.998Z,42.28
2023-02-05T18:34:40.031Z,40.60
2023-02-05T18:37:07.111Z,48.25
2023-02-05T18:39:34.454Z,50.03
2023-02-05T18:42:01.578Z,40.90
2023-02-05T18:44:29.093Z,42.83
2023-02-05T18:46:56.069Z,45.65
2023-02-05T18:49:23.679Z,64.75
2023-02-05T18:51:50.790Z,57.03
2023-02-05T18:54:18.042Z,50.00
2023-02-05T18:56:44.976Z,42.30
2023-02-05T18:59:15.477Z,57.85
2023-02-05T19:01:43.160Z,44.70
2023-02-05T19:04:13.407Z,46.05
2023-02-05T19:06:42.115Z,56.67
2023-02-05T19:09:09.899Z,45.92
2023-02-05T19:11:41.032Z,45.22
2023-02-05T19:14:11.687Z,45.42
2023-02-05T19:16:39.724Z,50.03
2023-02-05T19:19:07.494Z,48.90
2023-02-05T19:21:36.121Z,45.17
2023-02-05T19:24:09.793Z,44.15
2023-02-05T19:26:38.913Z,53.30
2023-02-05T19:29:08.956Z,49.47
2023-02-05T19:31:37.147Z,55.13
2023-02-05T19:34:05.095Z,58.28
2023-02-05T19:36:32.208Z,56.92
2023-02-05T19:39:01.050Z,59.72
2023-02-05T19:41:28.980Z,73.45
2023-02-05T19:43:58.801Z,48.85
2023-02-05T19:46:31.570Z,62.22
2023-02-05T19:49:04.804Z,71.38
2023-02-05T19:51:32.542Z,71.60
2023-02-05T19:54:03.042Z,64.63
2023-02-05T19:56:32.452Z,63.75
2023-02-05T19:58:59.686Z,73.53
2023-02-05T20:01:29.641Z,75.90
2023-02-05T20:04:06.611Z,106.35
2023-02-05T20:06:34.209Z,125.45
2023-02-05T20:09:02.397Z,96.72
2023-02-05T20:11:32.742Z,96.13
2023-02-05T20:14:01.562Z,76.75
2023-02-05T20:16:28.997Z,89.95
2023-02-05T20:18:58.480Z,91.80
2023-02-05T20:21:26.681Z,87.97
2023-02-05T20:23:54.636Z,76.93
2023-02-05T20:26:22.711Z,96.70
2023-02-05T20:29:12.921Z,117.65
2023-02-05T20:31:49.027Z,87.80
2023-02-05T20:34:19.443Z,85.38
2023-02-05T20:36:48.890Z,77.88
2023-02-05T20:39:18.047Z,108.20
2023-02-05T20:41:50.240Z,88.55
2023-02-05T20:44:18.345Z,73.80
2023-02-05T20:46:45.756Z,68.10
2023-02-05T20:49:13.597Z,63.40
2023-02-05T20:51:41.018Z,56.00
2023-02-05T20:54:09.521Z,65.53
2023-02-05T20:56:36.681Z,75.70
2023-02-05T20:59:07.186Z,64.22
2023-02-05T21:01:36.678Z,58.80
2023-02-05T21:04:06.624Z,52.90
2023-02-05T21:06:37.161Z,59.90
2023-02-05T21:09:05.480Z,58.17
2023-02-05T21:11:32.612Z,53.22
2023-02-05T21:14:00.074Z,65.22
2023-02-05T21:16:28.472Z,58.75
2023-02-05T21:18:56.330Z,57.15
2023-02-05T21:21:28.648Z,51.92
2023-02-05T21:26:27.013Z,62.15
2023-02-05T21:29:00.967Z,81.18
2023-02-05T21:31:36.145Z,90.43
2023-02-05T21:34:05.677Z,88.03
2023-02-05T21:36:33.879Z,94.05
2023-02-05T21:39:01.425Z,80.03
2023-02-05T21:41:28.537Z,91.88
2023-02-05T21:43:59.386Z,86.53
2023-02-05T21:46:29.375Z,78.50
2023-02-05T21:48:59.742Z,83.15
2023-02-05T21:51:31.872Z,89.78
2023-02-05T21:54:00.652Z,72.95
2023-02-05T21:56:45.543Z,87.72
2023-02-05T21:59:13.068Z,88.40
2023-02-05T22:01:41.636Z,83.28
2023-02-05T22:04:13.376Z,98.47
2023-02-05T22:06:41.076Z,86.50
2023-02-05T22:09:11.104Z,100.05
2023-02-05T22:11:39.406Z,102.88
2023-02-05T22:14:07.285Z,106.43
2023-02-05T22:16:35.845Z,103.60
2023-02-05T22:19:04.968Z,91.90
2023-02-05T22:21:34.784Z,91.40
2023-02-05T22:24:02.947Z,90.47
2023-02-05T22:26:36.472Z,88.80
2023-02-05T22:29:06.383Z,81.13
2023-02-05T22:31:33.771Z,91.40
2023-02-05T22:34:01.311Z,115.10
2023-02-05T22:36:30.296Z,109.47
2023-02-05T22:38:58.526Z,109.18
2023-02-05T22:41:32.817Z,111.80
2023-02-05T22:44:02.028Z,102.38
2023-02-05T22:46:31.353Z,97.15
2023-02-05T22:49:02.327Z,107.35
2023-02-05T22:51:38.920Z,100.75
2023-02-05T22:54:07.730Z,127.70
2023-02-05T22:56:34.793Z,108.53
2023-02-05T22:59:03.395Z,108.50
2023-02-05T23:01:33.168Z,112.80
2023-02-05T23:04:02.498Z,104.40
2023-02-05T23:06:32.306Z,97.47
2023-02-05T23:09:09.956Z,110.20
2023-02-05T23:11:37.156Z,97.95
2023-02-05T23:14:06.361Z,96.43
2023-02-05T23:16:36.884Z,97.32
2023-02-05T23:19:09.693Z,90.28
2023-02-05T23:21:38.579Z,91.55
2023-02-05T23:24:06.957Z,81.43
2023-02-05T23:26:38.606Z,82.60
2023-02-05T23:29:07.031Z,93.63
2023-02-05T23:31:34.316Z,82.85
2023-02-05T23:34:02.038Z,79.63
2023-02-05T23:36:29.288Z,90.47
2023-02-05T23:38:56.543Z,87.07
2023-02-05T23:41:36.035Z,85.32
2023-02-05T23:44:12.870Z,88.05
2023-02-05T23:46:40.896Z,86.18
2023-02-05T23:49:09.604Z,79.65
2023-02-05T23:51:37.080Z,72.78
2023-02-05T23:54:05.447Z,90.53
2023-02-05T23:56:32.520Z,82.15
2023-02-05T23:59:00.238Z,73.15
